createdAt,value
2022-12-07T00:00:49.221Z,82.00
2022-12-07T00:03:37.384Z,81.94
2022-12-07T00:06:22.054Z,82.05
2022-12-07T00:09:20.036Z,82.38
2022-12-07T00:12:08.040Z,82.57
2022-12-07T00:14:43.151Z,82.43
2022-12-07T00:17:31.043Z,82.79
2022-12-07T00:20:13.019Z,82.68
2022-12-07T00:23:01.247Z,82.55
2022-12-07T00:25:57.029Z,82.67
2022-12-07T00:28:46.245Z,82.58
2022-12-07T00:31:31.050Z,82.67
2022-12-07T00:34:33.036Z,82.69
2022-12-07T00:37:21.039Z,82.52
2022-12-07T00:39:56.216Z,82.55
2022-12-07T00:42:44.039Z,82.55
2022-12-07T00:45:32.189Z,82.54
2022-12-07T00:48:06.464Z,82.56
2022-12-07T00:50:54.027Z,82.61
2022-12-07T00:53:40.877Z,82.76
2022-12-07T00:56:33.053Z,82.62
2022-12-07T00:59:07.503Z,82.45
2022-12-07T01:01:55.119Z,82.42
2022-12-07T01:04:29.552Z,82.46
2022-12-07T01:07:17.033Z,82.46
2022-12-07T01:09:51.454Z,82.40
2022-12-07T01:12:39.012Z,82.20
2022-12-07T01:15:13.537Z,82.24
2022-12-07T01:18:02.023Z,82.14
2022-12-07T01:20:44.028Z,82.16
2022-12-07T01:23:32.020Z,82.15
2022-12-07T01:26:23.001Z,82.13
2022-12-07T01:29:00.217Z,82.09
2022-12-07T01:31:48.002Z,82.06
2022-12-07T01:34:30.223Z,82.15
2022-12-07T01:37:25.013Z,82.25
2022-12-07T01:40:15.047Z,82.08
2022-12-07T01:42:57.018Z,82.01
2022-12-07T01:45:55.067Z,82.07
2022-12-07T01:48:47.009Z,82.16
2022-12-07T01:51:22.135Z,82.11
2022-12-07T01:54:10.021Z,82.01
2022-12-07T01:56:45.206Z,81.87
2022-12-07T01:59:34.020Z,81.86
2022-12-07T02:02:17.052Z,81.88
2022-12-07T02:05:14.002Z,81.94
2022-12-07T02:08:04.286Z,81.98
2022-12-07T02:10:47.004Z,81.84
2022-12-07T02:13:46.018Z,81.89
2022-12-07T02:16:40.010Z,81.87
2022-12-07T02:19:47.150Z,81.88
2022-12-07T02:22:53.994Z,81.92
2022-12-07T02:25:40.160Z,82.06
2022-12-07T02:28:43.993Z,81.89
2022-12-07T02:31:29.183Z,81.90
2022-12-07T02:34:18.018Z,81.90
2022-12-07T02:37:04.190Z,81.86
2022-12-07T02:39:59.152Z,81.92
2022-12-07T02:42:45.175Z,81.73
2022-12-07T02:45:30.014Z,81.63
2022-12-07T02:48:12.154Z,81.62
2022-12-07T02:50:57.991Z,81.71
2022-12-07T02:53:49.179Z,81.71
2022-12-07T02:56:35.987Z,81.65
2022-12-07T02:59:39.213Z,81.64
2022-12-07T03:02:23.258Z,81.76
2022-12-07T03:05:21.221Z,81.93
2022-12-07T03:08:31.932Z,82.05
2022-12-07T03:11:35.020Z,82.13
2022-12-07T03:14:20.768Z,82.07
2022-12-07T03:17:13.982Z,82.22
2022-12-07T03:20:06.181Z,82.19
2022-12-07T03:22:44.122Z,82.10
2022-12-07T03:25:32.007Z,81.89
2022-12-07T03:28:11.127Z,81.73
2022-12-07T03:31:20.204Z,81.75
2022-12-07T03:34:03.337Z,81.72
2022-12-07T03:37:13.027Z,81.72
2022-12-07T03:39:52.131Z,81.71
2022-12-07T03:42:40.987Z,81.65
2022-12-07T03:45:16.173Z,81.64
2022-12-07T03:48:16.981Z,81.72
2022-12-07T03:51:08.341Z,81.84
2022-12-07T03:54:04.977Z,81.90
2022-12-07T03:56:40.155Z,82.11
2022-12-07T03:59:28.983Z,82.13
2022-12-07T04:02:07.208Z,82.20
2022-12-07T04:04:54.980Z,82.31
2022-12-07T04:07:37.018Z,82.47
2022-12-07T04:10:33.000Z,82.36
2022-12-07T04:13:21.177Z,82.49
2022-12-07T04:16:03.176Z,82.37
2022-12-07T04:18:50.991Z,82.54
2022-12-07T04:21:26.194Z,82.63
2022-12-07T04:24:14.974Z,82.74
2022-12-07T04:26:56.151Z,83.00
2022-12-07T04:29:38.191Z,82.98
2022-12-07T04:32:20.341Z,82.98
2022-12-07T04:35:02.171Z,83.15
2022-12-07T04:37:44.314Z,83.15
2022-12-07T04:40:26.139Z,83.19
2022-12-07T04:43:07.150Z,83.22
2022-12-07T04:45:47.962Z,83.09
2022-12-07T04:48:29.356Z,83.07
2022-12-07T04:51:11.968Z,83.26
2022-12-07T04:53:59.969Z,83.50
2022-12-07T04:56:42.987Z,83.43
2022-12-07T04:59:31.977Z,83.33
2022-12-07T05:02:06.577Z,83.42
2022-12-07T05:04:55.178Z,83.46
2022-12-07T05:07:31.156Z,83.48
2022-12-07T05:10:19.978Z,83.61
2022-12-07T05:12:54.586Z,83.36
2022-12-07T05:15:43.189Z,83.18
2022-12-07T05:18:18.576Z,83.29
2022-12-07T05:21:06.139Z,83.24
2022-12-07T05:23:54.975Z,83.28
2022-12-07T05:26:43.168Z,83.49
2022-12-07T05:29:23.105Z,83.34
2022-12-07T05:32:11.029Z,83.11
2022-12-07T05:34:46.122Z,83.18
2022-12-07T05:37:33.939Z,83.29
2022-12-07T05:40:09.103Z,83.31
2022-12-07T05:43:04.040Z,83.19
2022-12-07T05:45:45.997Z,83.09
2022-12-07T05:48:34.176Z,82.97
2022-12-07T05:51:09.303Z,82.93
2022-12-07T05:53:57.137Z,82.83
2022-12-07T05:56:39.131Z,82.78
2022-12-07T05:59:34.942Z,82.71
2022-12-07T06:02:24.033Z,82.70
2022-12-07T06:04:59.096Z,82.73
2022-12-07T06:07:47.001Z,82.99
2022-12-07T06:10:28.962Z,83.01
2022-12-07T06:13:11.095Z,83.12
2022-12-07T06:15:59.966Z,83.20
2022-12-07T06:18:34.407Z,83.32
2022-12-07T06:21:21.953Z,83.44
2022-12-07T06:24:09.958Z,83.38
2022-12-07T06:26:57.955Z,83.41
2022-12-07T06:29:33.083Z,83.33
2022-12-07T06:32:20.944Z,83.01
2022-12-07T06:34:55.175Z,82.97
2022-12-07T06:37:42.957Z,82.91
2022-12-07T06:40:18.102Z,82.85
2022-12-07T06:43:05.953Z,82.83
2022-12-07T06:45:41.179Z,82.61
2022-12-07T06:48:29.156Z,82.38
2022-12-07T06:51:10.945Z,82.28
2022-12-07T06:53:58.965Z,82.27
2022-12-07T06:56:34.083Z,82.26
2022-12-07T06:59:21.956Z,82.32
2022-12-07T07:02:04.032Z,82.23
2022-12-07T07:04:59.035Z,82.16
2022-12-07T07:08:20.345Z,82.30
2022-12-07T07:10:49.932Z,82.40
2022-12-07T07:13:44.947Z,82.32
2022-12-07T07:16:32.989Z,82.30
2022-12-07T07:19:08.105Z,82.30
2022-12-07T07:21:55.943Z,82.29
2022-12-07T07:24:31.355Z,82.27
2022-12-07T07:27:19.045Z,82.37
2022-12-07T07:29:54.178Z,82.48
2022-12-07T07:32:41.950Z,82.32
2022-12-07T07:35:23.932Z,82.36
2022-12-07T07:38:18.945Z,82.29
2022-12-07T07:41:08.136Z,82.21
2022-12-07T07:43:43.286Z,81.99
2022-12-07T07:46:31.034Z,81.92
2022-12-07T07:49:06.073Z,82.01
2022-12-07T07:51:53.943Z,82.27
2022-12-07T07:54:35.066Z,82.39
2022-12-07T07:57:15.914Z,82.25
2022-12-07T08:00:04.170Z,82.14
2022-12-07T08:02:54.480Z,82.15
2022-12-07T08:14:46.940Z,82.12
2022-12-07T08:17:35.040Z,82.17
2022-12-07T08:20:10.083Z,82.25
2022-12-07T08:22:57.921Z,82.41
2022-12-07T08:25:33.068Z,82.38
2022-12-07T08:28:20.920Z,82.33
2022-12-07T08:30:56.136Z,82.40
2022-12-07T08:33:44.924Z,82.41
2022-12-07T08:36:20.147Z,82.33
2022-12-07T08:39:30.775Z,82.19
2022-12-07T08:42:10.018Z,82.12
2022-12-07T08:45:04.918Z,82.03
2022-12-07T08:48:05.917Z,82.03
2022-12-07T08:50:44.556Z,81.91
2022-12-07T08:53:37.937Z,81.81
2022-12-07T08:56:13.081Z,81.83
2022-12-07T08:59:00.919Z,81.74
2022-12-07T09:01:43.010Z,81.79
2022-12-07T09:04:38.012Z,81.83
2022-12-07T09:07:25.956Z,81.61
2022-12-07T09:10:01.584Z,81.60
2022-12-07T09:12:49.928Z,81.43
2022-12-07T09:15:32.021Z,81.46
2022-12-07T09:18:27.044Z,81.42
2022-12-07T09:21:14.928Z,81.37
2022-12-07T09:23:50.066Z,80.41
2022-12-07T09:26:37.991Z,79.88
2022-12-07T09:29:19.918Z,80.00
2022-12-07T09:32:11.803Z,79.33
2022-12-07T09:34:53.988Z,79.28
2022-12-07T09:37:48.907Z,79.27
2022-12-07T09:40:36.896Z,78.97
2022-12-07T09:43:12.165Z,78.51
2022-12-07T09:46:01.986Z,78.36
2022-12-07T09:48:46.114Z,78.23
2022-12-07T09:51:33.944Z,78.62
2022-12-07T09:54:16.910Z,78.44
2022-12-07T09:57:04.984Z,77.79
2022-12-07T09:59:46.975Z,77.39
2022-12-07T10:02:44.180Z,77.20
2022-12-07T10:05:37.032Z,76.88
2022-12-07T10:08:19.994Z,76.65
2022-12-07T10:11:04.703Z,76.54
2022-12-07T10:13:48.889Z,76.39
2022-12-07T10:16:40.009Z,76.62
2022-12-07T10:19:31.233Z,76.16
2022-12-07T10:22:32.088Z,76.65
2022-12-07T10:25:26.972Z,76.43
2022-12-07T10:28:23.101Z,76.54
2022-12-07T10:31:22.934Z,76.76
2022-12-07T10:34:07.043Z,76.35
2022-12-07T10:36:47.933Z,75.82
2022-12-07T10:39:31.918Z,76.20
2022-12-07T10:42:13.976Z,75.63
2022-12-07T10:44:57.175Z,75.69
2022-12-07T10:48:14.016Z,75.47
2022-12-07T10:51:07.073Z,75.57
2022-12-07T10:54:06.169Z,75.79
2022-12-07T10:56:59.913Z,76.12
2022-12-07T10:59:42.939Z,76.09
2022-12-07T11:02:49.948Z,76.25
2022-12-07T11:05:40.962Z,76.09
2022-12-07T11:08:41.695Z,76.38
2022-12-07T11:11:29.888Z,76.91
2022-12-07T11:14:13.872Z,77.20
2022-12-07T11:17:12.887Z,77.54
2022-12-07T11:19:54.258Z,77.45
2022-12-07T11:23:09.891Z,77.12
2022-12-07T11:25:50.032Z,77.08
2022-12-07T11:28:55.901Z,76.98
2022-12-07T11:31:30.719Z,77.00
2022-12-07T11:34:26.887Z,77.10
2022-12-07T11:37:02.154Z,77.19
2022-12-07T11:40:07.898Z,77.34
2022-12-07T11:42:55.875Z,77.62
2022-12-07T11:45:55.896Z,77.69
2022-12-07T11:48:54.967Z,77.54
2022-12-07T11:51:38.085Z,77.74
2022-12-07T11:54:23.973Z,77.54
2022-12-07T11:57:16.864Z,77.62
2022-12-07T12:00:09.896Z,77.62
2022-12-07T12:03:03.051Z,77.60
2022-12-07T12:05:43.909Z,77.51
2022-12-07T12:15:40.884Z,78.06
2022-12-07T12:18:24.489Z,77.65
2022-12-07T12:21:29.879Z,77.83
2022-12-07T12:24:15.059Z,77.72
2022-12-07T12:27:22.960Z,77.51
2022-12-07T12:30:14.899Z,77.79
2022-12-07T12:32:53.034Z,77.87
2022-12-07T12:35:43.881Z,78.02
2022-12-07T12:38:45.873Z,77.94
2022-12-07T12:41:42.918Z,77.88
2022-12-07T12:44:30.009Z,78.12
2022-12-07T12:47:57.916Z,78.44
2022-12-07T12:50:45.963Z,78.68
2022-12-07T12:53:32.043Z,78.33
2022-12-07T12:56:19.976Z,78.01
2022-12-07T12:58:55.030Z,77.73
2022-12-07T13:01:50.931Z,77.21
2022-12-07T13:05:20.966Z,77.08
2022-12-07T13:08:19.889Z,76.38
2022-12-07T13:11:25.913Z,76.28
2022-12-07T13:14:01.013Z,75.84
2022-12-07T13:16:49.960Z,75.43
2022-12-07T13:19:50.030Z,75.21
2022-12-07T13:22:37.967Z,74.91
2022-12-07T13:25:25.017Z,75.32
2022-12-07T13:28:34.861Z,75.28
2022-12-07T13:31:21.410Z,75.21
2022-12-07T13:34:13.725Z,75.51
2022-12-07T13:36:58.869Z,75.62
2022-12-07T13:40:06.879Z,75.65
2022-12-07T13:43:01.882Z,75.35
2022-12-07T13:45:55.951Z,75.33
2022-12-07T13:48:53.190Z,75.44
2022-12-07T13:51:43.881Z,75.23
2022-12-07T13:54:21.048Z,75.34
2022-12-07T13:57:08.878Z,75.41
2022-12-07T13:59:44.048Z,75.30
2022-12-07T14:02:45.408Z,75.21
2022-12-07T14:05:31.992Z,75.45
2022-12-07T14:08:20.929Z,75.26
2022-12-07T14:10:56.044Z,75.11
2022-12-07T14:13:46.985Z,74.54
2022-12-07T14:16:29.159Z,74.08
2022-12-07T14:19:53.867Z,73.66
2022-12-07T14:22:34.922Z,73.42
2022-12-07T14:25:35.865Z,73.63
2022-12-07T14:29:00.860Z,73.37
2022-12-07T14:31:49.009Z,73.22
2022-12-07T14:34:24.044Z,73.20
2022-12-07T14:37:14.887Z,73.42
2022-12-07T14:39:49.974Z,73.59
2022-12-07T14:42:38.905Z,73.68
2022-12-07T14:45:20.850Z,73.81
2022-12-07T14:54:13.878Z,74.28
2022-12-07T14:56:52.615Z,74.32
2022-12-07T14:59:45.078Z,74.45
2022-12-07T15:02:23.088Z,74.55
2022-12-07T15:05:15.646Z,74.63
2022-12-07T15:07:52.511Z,74.59
2022-12-07T15:10:42.853Z,74.60
2022-12-07T15:13:37.457Z,74.68
2022-12-07T15:16:30.787Z,74.52
2022-12-07T15:19:28.410Z,74.62
2022-12-07T15:22:18.861Z,74.58
2022-12-07T15:24:54.009Z,74.57
2022-12-07T15:27:44.041Z,74.19
2022-12-07T15:30:19.009Z,74.62
2022-12-07T15:33:06.881Z,74.53
2022-12-07T15:35:56.047Z,74.55
2022-12-07T15:39:05.212Z,74.40
2022-12-07T15:41:41.043Z,74.24
2022-12-07T15:44:35.330Z,74.25
2022-12-07T15:47:23.044Z,74.02
2022-12-07T15:49:57.368Z,74.08
2022-12-07T15:52:45.918Z,74.19
2022-12-07T15:55:20.342Z,74.11
2022-12-07T15:58:07.866Z,73.85
2022-12-07T16:00:42.597Z,73.63
2022-12-07T16:03:31.016Z,73.56
2022-12-07T16:06:06.618Z,73.46
2022-12-07T16:09:00.835Z,73.43
2022-12-07T16:11:35.296Z,73.55
2022-12-07T16:14:22.841Z,73.71
2022-12-07T16:16:57.342Z,73.83
2022-12-07T16:19:45.865Z,73.92
2022-12-07T16:22:20.262Z,74.18
2022-12-07T16:25:07.826Z,74.27
2022-12-07T16:28:02.839Z,74.36
2022-12-07T16:30:50.922Z,74.45
2022-12-07T16:33:25.992Z,74.37
2022-12-07T16:36:18.603Z,74.32
2022-12-07T16:39:00.004Z,74.70
2022-12-07T16:41:51.099Z,74.70
2022-12-07T16:44:26.257Z,74.94
2022-12-07T16:47:14.001Z,75.22
2022-12-07T16:49:55.841Z,75.09
2022-12-07T16:52:50.848Z,75.13
2022-12-07T16:55:53.829Z,75.09
2022-12-07T16:58:42.050Z,75.07
2022-12-07T17:01:20.362Z,75.02
2022-12-07T17:04:07.887Z,75.17
2022-12-07T17:06:43.128Z,75.32
2022-12-07T17:09:31.134Z,75.23
2022-12-07T17:12:14.855Z,75.20
2022-12-07T17:15:23.694Z,74.99
2022-12-07T17:18:05.996Z,75.14
2022-12-07T17:20:53.833Z,75.25
2022-12-07T17:23:37.041Z,74.98
2022-12-07T17:26:38.860Z,74.88
2022-12-07T17:29:34.022Z,74.65
2022-12-07T17:32:25.342Z,74.50
2022-12-07T17:35:14.836Z,74.67
2022-12-07T17:37:51.268Z,74.51
2022-12-07T17:40:38.868Z,74.40
2022-12-07T17:43:21.311Z,74.50
2022-12-07T17:46:10.985Z,74.44
2022-12-07T17:48:48.920Z,74.42
2022-12-07T17:51:59.124Z,74.57
2022-12-07T17:54:34.387Z,74.64
2022-12-07T17:57:24.796Z,74.62
2022-12-07T18:00:04.334Z,74.78
2022-12-07T18:02:52.997Z,74.79
2022-12-07T18:05:35.023Z,74.48
2022-12-07T18:08:16.022Z,74.49
2022-12-07T18:10:56.826Z,74.20
2022-12-07T18:13:47.893Z,74.33
2022-12-07T18:16:35.037Z,74.22
2022-12-07T18:19:23.837Z,74.15
2022-12-07T18:22:05.845Z,74.17
2022-12-07T18:24:51.979Z,74.06
2022-12-07T18:27:40.014Z,74.35
2022-12-07T18:30:15.978Z,74.33
2022-12-07T18:33:04.996Z,74.50
2022-12-07T18:35:42.787Z,74.61
2022-12-07T18:38:33.969Z,74.38
2022-12-07T18:41:11.020Z,74.25
2022-12-07T18:43:59.034Z,74.21
2022-12-07T18:46:40.798Z,74.24
2022-12-07T18:49:28.827Z,74.11
2022-12-07T18:52:03.960Z,74.11
2022-12-07T18:54:51.936Z,73.95
2022-12-07T18:57:27.184Z,73.74
2022-12-07T19:00:16.796Z,73.45
2022-12-07T19:02:59.271Z,73.60
2022-12-07T19:05:41.252Z,73.48
2022-12-07T19:08:23.999Z,73.49
2022-12-07T19:11:26.900Z,73.48
2022-12-07T19:14:09.148Z,73.44
2022-12-07T19:16:52.486Z,73.29
2022-12-07T19:19:51.822Z,73.02
2022-12-07T19:22:32.847Z,72.94
2022-12-07T19:25:21.919Z,73.06
2022-12-07T19:28:17.839Z,73.18
2022-12-07T19:31:05.873Z,73.30
2022-12-07T19:33:48.027Z,73.03
2022-12-07T19:36:31.822Z,72.74
2022-12-07T19:39:20.837Z,72.66
2022-12-07T19:42:02.036Z,72.91
2022-12-07T19:44:43.052Z,73.00
2022-12-07T19:47:24.814Z,72.76
2022-12-07T19:50:16.977Z,73.00
2022-12-07T19:52:56.468Z,72.99
2022-12-07T19:55:45.792Z,72.90
2022-12-07T19:58:26.785Z,72.96
2022-12-07T20:01:20.884Z,72.79
2022-12-07T20:03:57.581Z,73.18
2022-12-07T20:06:46.794Z,73.16
2022-12-07T20:09:38.920Z,73.04
2022-12-07T20:12:46.780Z,73.20
2022-12-07T20:15:21.310Z,73.11
2022-12-07T20:18:10.024Z,73.00
2022-12-07T20:21:03.857Z,73.04
2022-12-07T20:23:44.994Z,72.77
2022-12-07T20:26:25.799Z,72.64
2022-12-07T20:29:10.988Z,72.66
2022-12-07T20:31:55.812Z,72.83
2022-12-07T20:34:36.973Z,72.68
2022-12-07T20:37:17.914Z,72.53
2022-12-07T20:40:00.122Z,72.31
2022-12-07T20:42:44.827Z,72.23
2022-12-07T20:45:26.964Z,72.16
2022-12-07T20:48:07.796Z,71.94
2022-12-07T20:50:56.779Z,72.18
2022-12-07T20:53:33.340Z,72.65
2022-12-07T20:56:21.770Z,73.25
2022-12-07T20:59:05.090Z,73.65
2022-12-07T21:01:46.064Z,73.86
2022-12-07T21:04:27.782Z,74.15
2022-12-07T21:07:15.064Z,73.99
2022-12-07T21:09:58.348Z,73.79
2022-12-07T21:12:40.013Z,73.88
2022-12-07T21:15:21.786Z,74.02
2022-12-07T21:18:07.441Z,74.28
2022-12-07T21:20:49.210Z,74.49
2022-12-07T21:23:30.611Z,74.66
2022-12-07T21:26:23.842Z,74.78
2022-12-07T21:29:05.910Z,74.68
2022-12-07T21:31:47.850Z,74.82
2022-12-07T21:34:29.742Z,74.95
2022-12-07T21:37:11.934Z,74.70
2022-12-07T21:39:53.140Z,74.88
2022-12-07T21:42:35.050Z,74.93
2022-12-07T21:45:19.154Z,75.09
2022-12-07T21:48:00.766Z,75.34
2022-12-07T21:50:41.949Z,75.27
2022-12-07T21:53:22.893Z,75.21
2022-12-07T21:56:03.901Z,74.86
2022-12-07T21:58:44.835Z,74.89
2022-12-07T22:01:40.011Z,74.59
2022-12-07T22:04:32.791Z,74.11
2022-12-07T22:07:16.741Z,73.98
2022-12-07T22:09:57.792Z,73.46
2022-12-07T22:12:38.919Z,73.05
2022-12-07T22:15:21.802Z,72.55
2022-12-07T22:18:09.762Z,72.57
2022-12-07T22:20:56.171Z,73.22
2022-12-07T22:23:46.777Z,74.02
2022-12-07T22:26:24.612Z,74.58
2022-12-07T22:29:13.768Z,74.76
2022-12-07T22:31:54.806Z,75.12
2022-12-07T22:34:35.894Z,75.30
2022-12-07T22:37:17.038Z,75.43
2022-12-07T22:39:58.013Z,75.71
2022-12-07T22:42:39.805Z,76.00
2022-12-07T22:45:21.985Z,76.05
2022-12-07T22:48:02.802Z,76.16
2022-12-07T22:50:43.910Z,76.37
2022-12-07T22:53:31.299Z,76.51
2022-12-07T22:56:13.989Z,76.71
2022-12-07T22:58:55.791Z,76.73
2022-12-07T23:01:37.210Z,76.41
2022-12-07T23:04:18.853Z,75.89
2022-12-07T23:06:59.932Z,75.64
2022-12-07T23:09:41.929Z,75.48
2022-12-07T23:13:08.777Z,75.24
2022-12-07T23:15:43.225Z,75.11
2022-12-07T23:18:30.744Z,75.27
2022-12-07T23:21:05.355Z,75.27
2022-12-07T23:23:53.756Z,75.02
2022-12-07T23:26:28.388Z,75.00
2022-12-07T23:29:18.026Z,74.71
2022-12-07T23:31:53.324Z,74.66
2022-12-07T23:34:41.835Z,74.84
2022-12-07T23:37:16.295Z,74.72
2022-12-07T23:40:03.834Z,74.57
2022-12-07T23:42:44.759Z,74.22
2022-12-07T23:45:32.847Z,73.98
2022-12-07T23:48:07.839Z,73.77
2022-12-07T23:50:55.754Z,73.54
2022-12-07T23:53:33.421Z,73.57
2022-12-07T23:56:25.742Z,73.41
2022-12-07T23:59:00.910Z,73.35
